sensor_id;sensor_type;location;lat;lon;timestamp;pressure;altitude;pressure_sealevel;temperature;humidity
68654;BME280;55636;51.108;13.622;2023-01-31T00:00:15;100290.25;;;3.73;57.93
68654;BME280;55636;51.108;13.622;2023-01-31T00:01:20;100283.34;;;3.70;57.96
68654;BME280;55636;51.108;13.622;2023-01-31T00:02:22;100293.22;;;3.71;57.89
68654;BME280;55636;51.108;13.622;2023-01-31T00:03:24;100290.72;;;3.70;57.97
68654;BME280;55636;51.108;13.622;2023-01-31T00:04:28;100293.66;;;3.68;57.79
68654;BME280;55636;51.108;13.622;2023-01-31T00:05:30;100288.38;;;3.67;57.97
68654;BME280;55636;51.108;13.622;2023-01-31T00:06:35;100289.47;;;3.66;57.86
68654;BME280;55636;51.108;13.622;2023-01-31T00:07:39;100298.72;;;3.65;57.99
68654;BME280;55636;51.108;13.622;2023-01-31T00:08:42;100291.34;;;3.65;57.84
68654;BME280;55636;51.108;13.622;2023-01-31T00:09:45;100285.06;;;3.65;58.00
68654;BME280;55636;51.108;13.622;2023-01-31T00:10:47;100289.66;;;3.64;58.06
68654;BME280;55636;51.108;13.622;2023-01-31T00:11:50;100293.25;;;3.65;58.00
68654;BME280;55636;51.108;13.622;2023-01-31T00:12:54;100294.06;;;3.65;57.92
68654;BME280;55636;51.108;13.622;2023-01-31T00:13:58;100299.75;;;3.64;58.08
68654;BME280;55636;51.108;13.622;2023-01-31T00:15:01;100291.56;;;3.64;57.98
68654;BME280;55636;51.108;13.622;2023-01-31T00:16:03;100295.97;;;3.65;58.06
68654;BME280;55636;51.108;13.622;2023-01-31T00:17:06;100300.59;;;3.64;57.93
68654;BME280;55636;51.108;13.622;2023-01-31T00:18:08;100296.41;;;3.62;58.10
68654;BME280;55636;51.108;13.622;2023-01-31T00:19:10;100296.41;;;3.62;58.12
68654;BME280;55636;51.108;13.622;2023-01-31T00:20:12;100302.94;;;3.61;58.12
68654;BME280;55636;51.108;13.622;2023-01-31T00:21:23;100290.53;;;3.58;58.24
68654;BME280;55636;51.108;13.622;2023-01-31T00:22:26;100301.25;;;3.59;58.23
68654;BME280;55636;51.108;13.622;2023-01-31T00:23:28;100304.22;;;3.58;58.19
68654;BME280;55636;51.108;13.622;2023-01-31T00:24:30;100299.78;;;3.57;58.24
68654;BME280;55636;51.108;13.622;2023-01-31T00:25:32;100297.66;;;3.59;58.26
68654;BME280;55636;51.108;13.622;2023-01-31T00:26:35;100308.59;;;3.59;58.18
68654;BME280;55636;51.108;13.622;2023-01-31T00:27:38;100308.59;;;3.59;58.16
68654;BME280;55636;51.108;13.622;2023-01-31T00:28:42;100311.53;;;3.57;58.23
68654;BME280;55636;51.108;13.622;2023-01-31T00:29:44;100302.75;;;3.55;58.32
68654;BME280;55636;51.108;13.622;2023-01-31T00:30:49;100313.66;;;3.55;58.45
68654;BME280;55636;51.108;13.622;2023-01-31T00:31:51;100315.31;;;3.56;58.32
68654;BME280;55636;51.108;13.622;2023-01-31T00:32:54;100304.41;;;3.56;58.37
68654;BME280;55636;51.108;13.622;2023-01-31T00:33:58;100301.88;;;3.55;58.37
68654;BME280;55636;51.108;13.622;2023-01-31T00:35:00;100312.81;;;3.55;58.51
68654;BME280;55636;51.108;13.622;2023-01-31T00:36:08;100303.78;;;3.54;58.57
68654;BME280;55636;51.108;13.622;2023-01-31T00:37:10;100314.94;;;3.53;58.49
68654;BME280;55636;51.108;13.622;2023-01-31T00:38:14;100306.53;;;3.54;58.57
68654;BME280;55636;51.108;13.622;2023-01-31T00:39:16;100313.84;;;3.54;58.65
68654;BME280;55636;51.108;13.622;2023-01-31T00:40:19;100313.03;;;3.53;58.46
68654;BME280;55636;51.108;13.622;2023-01-31T00:41:23;100325.63;;;3.54;58.56
68654;BME280;55636;51.108;13.622;2023-01-31T00:42:26;100318.91;;;3.57;58.61
68654;BME280;55636;51.108;13.622;2023-01-31T00:43:29;100327.94;;;3.57;58.62
68654;BME280;55636;51.108;13.622;2023-01-31T00:44:31;100331.72;;;3.56;58.79
68654;BME280;55636;51.108;13.622;2023-01-31T00:45:33;100318.06;;;3.56;58.64
68654;BME280;55636;51.108;13.622;2023-01-31T00:46:36;100328.78;;;3.58;58.84
68654;BME280;55636;51.108;13.622;2023-01-31T00:47:39;100334.25;;;3.58;58.76
68654;BME280;55636;51.108;13.622;2023-01-31T00:48:42;100332.56;;;3.57;58.83
68654;BME280;55636;51.108;13.622;2023-01-31T00:49:47;100332.56;;;3.57;58.66
68654;BME280;55636;51.108;13.622;2023-01-31T00:50:50;100324.97;;;3.59;58.69
68654;BME280;55636;51.108;13.622;2023-01-31T00:51:53;100326.88;;;3.58;58.69
68654;BME280;55636;51.108;13.622;2023-01-31T00:52:55;100327.94;;;3.57;58.78
68654;BME280;55636;51.108;13.622;2023-01-31T00:53:59;100331.53;;;3.58;58.64
68654;BME280;55636;51.108;13.622;2023-01-31T00:55:02;100330.66;;;3.57;58.68
68654;BME280;55636;51.108;13.622;2023-01-31T00:56:06;100334.25;;;3.58;58.50
68654;BME280;55636;51.108;13.622;2023-01-31T00:57:09;100336.53;;;3.61;58.36
68654;BME280;55636;51.108;13.622;2023-01-31T00:58:13;100336.75;;;3.59;58.45
68654;BME280;55636;51.108;13.622;2023-01-31T00:59:15;100326.06;;;3.58;58.32
68654;BME280;55636;51.108;13.622;2023-01-31T01:00:18;100335.91;;;3.59;58.21
68654;BME280;55636;51.108;13.622;2023-01-31T01:01:24;100337.81;;;3.58;58.21
68654;BME280;55636;51.108;13.622;2023-01-31T01:02:27;100344.31;;;3.57;58.16
68654;BME280;55636;51.108;13.622;2023-01-31T01:03:29;100339.50;;;3.59;57.88
68654;BME280;55636;51.108;13.622;2023-01-31T01:04:31;100342.44;;;3.58;57.73
68654;BME280;55636;51.108;13.622;2023-01-31T01:05:34;100340.75;;;3.57;57.74
68654;BME280;55636;51.108;13.622;2023-01-31T01:06:38;100345.59;;;3.55;57.62
68654;BME280;55636;51.108;13.622;2023-01-31T01:07:42;100349.19;;;3.55;57.58
68654;BME280;55636;51.108;13.622;2023-01-31T01:08:45;100338.66;;;3.52;57.34
68654;BME280;55636;51.108;13.622;2023-01-31T01:09:47;100350.44;;;3.53;57.39
68654;BME280;55636;51.108;13.622;2023-01-31T01:10:49;100351.91;;;3.55;57.27
68654;BME280;55636;51.108;13.622;2023-01-31T01:11:51;100347.91;;;3.51;57.19
68654;BME280;55636;51.108;13.622;2023-01-31T01:12:54;100347.06;;;3.51;57.04
68654;BME280;55636;51.108;13.622;2023-01-31T01:13:57;100359.69;;;3.52;57.11
68654;BME280;55636;51.108;13.622;2023-01-31T01:15:00;100357.38;;;3.49;57.02
68654;BME280;55636;51.108;13.622;2023-01-31T01:16:10;100359.06;;;3.50;56.99
68654;BME280;55636;51.108;13.622;2023-01-31T01:17:13;100364.72;;;3.48;56.91
68654;BME280;55636;51.108;13.622;2023-01-31T01:18:16;100370.41;;;3.47;56.91
68654;BME280;55636;51.108;13.622;2023-01-31T01:19:19;100373.38;;;3.45;56.95
68654;BME280;55636;51.108;13.622;2023-01-31T01:20:23;100382.38;;;3.46;56.97
68654;BME280;55636;51.108;13.622;2023-01-31T01:21:29;100376.09;;;3.45;56.92
68654;BME280;55636;51.108;13.622;2023-01-31T01:22:34;100380.69;;;3.45;56.95
68654;BME280;55636;51.108;13.622;2023-01-31T01:23:38;100394.78;;;3.41;56.95
68654;BME280;55636;51.108;13.622;2023-01-31T01:24:43;100381.13;;;3.41;56.95
68654;BME280;55636;51.108;13.622;2023-01-31T01:25:45;100400.47;;;3.40;57.04
68654;BME280;55636;51.108;13.622;2023-01-31T01:26:47;100383.22;;;3.39;57.17
68654;BME280;55636;51.108;13.622;2023-01-31T01:27:50;100397.09;;;3.38;57.31
68654;BME280;55636;51.108;13.622;2023-01-31T01:28:53;100386.38;;;3.36;57.41
68654;BME280;55636;51.108;13.622;2023-01-31T01:29:57;100396.50;;;3.36;57.52
68654;BME280;55636;51.108;13.622;2023-01-31T01:31:04;100383.88;;;3.35;57.67
68654;BME280;55636;51.108;13.622;2023-01-31T01:32:08;100376.94;;;3.32;57.81
68654;BME280;55636;51.108;13.622;2023-01-31T01:33:10;100386.19;;;3.31;57.94
68654;BME280;55636;51.108;13.622;2023-01-31T01:34:15;100370.03;;;3.30;58.10
68654;BME280;55636;51.108;13.622;2023-01-31T01:35:17;100388.09;;;3.31;58.27
68654;BME280;55636;51.108;13.622;2023-01-31T01:36:20;100381.16;;;3.28;58.48
68654;BME280;55636;51.108;13.622;2023-01-31T01:37:23;100395.00;;;3.26;58.76
68654;BME280;55636;51.108;13.622;2023-01-31T01:38:26;100387.66;;;3.27;58.83
68654;BME280;55636;51.108;13.622;2023-01-31T01:39:29;100397.13;;;3.24;58.76
68654;BME280;55636;51.108;13.622;2023-01-31T01:40:35;100409.09;;;3.23;59.00
68654;BME280;55636;51.108;13.622;2023-01-31T01:41:39;100402.59;;;3.24;59.05
68654;BME280;55636;51.108;13.622;2023-01-31T01:42:42;100404.44;;;3.24;59.00
68654;BME280;55636;51.108;13.622;2023-01-31T01:44:55;100409.50;;;3.20;59.04
68654;BME280;55636;51.108;13.622;2023-01-31T01:45:58;100408.88;;;3.18;59.04
68654;BME280;55636;51.108;13.622;2023-01-31T01:47:01;100406.34;;;3.17;59.21
68654;BME280;55636;51.108;13.622;2023-01-31T01:48:05;100407.41;;;3.16;59.33
68654;BME280;55636;51.108;13.622;2023-01-31T01:49:32;100410.78;;;3.11;59.45
68654;BME280;55636;51.108;13.622;2023-01-31T01:50:39;100410.56;;;3.13;59.43
68654;BME280;55636;51.108;13.622;2023-01-31T01:51:44;100407.19;;;3.11;59.52
68654;BME280;55636;51.108;13.622;2023-01-31T01:52:52;100414.56;;;3.10;59.64
68654;BME280;55636;51.108;13.622;2023-01-31T01:53:59;100415.38;;;3.11;59.57
68654;BME280;55636;51.108;13.622;2023-01-31T01:55:08;100418.53;;;3.07;59.47
68654;BME280;55636;51.108;13.622;2023-01-31T01:56:16;100422.31;;;3.06;59.64
68654;BME280;55636;51.108;13.622;2023-01-31T01:57:24;100417.06;;;3.05;59.62
68654;BME280;55636;51.108;13.622;2023-01-31T01:58:36;100414.34;;;3.05;59.80
68654;BME280;55636;51.108;13.622;2023-01-31T01:59:43;100418.13;;;3.04;59.72
68654;BME280;55636;51.108;13.622;2023-01-31T02:00:48;100423.56;;;3.04;59.68
68654;BME280;55636;51.108;13.622;2023-01-31T02:01:54;100407.19;;;3.04;59.87
68654;BME280;55636;51.108;13.622;2023-01-31T02:02:59;100417.28;;;3.03;59.80
68654;BME280;55636;51.108;13.622;2023-01-31T02:04:06;100409.28;;;3.02;60.00
68654;BME280;55636;51.108;13.622;2023-01-31T02:05:15;100415.81;;;3.01;59.98
68654;BME280;55636;51.108;13.622;2023-01-31T02:06:18;100414.13;;;3.00;60.09
68654;BME280;55636;51.108;13.622;2023-01-31T02:07:21;100419.59;;;3.00;59.92
68654;BME280;55636;51.108;13.622;2023-01-31T02:08:29;100423.13;;;3.00;60.08
68654;BME280;55636;51.108;13.622;2023-01-31T02:09:45;100421.50;;;2.99;60.11
68654;BME280;55636;51.108;13.622;2023-01-31T02:11:07;100417.69;;;3.00;60.14
68654;BME280;55636;51.108;13.622;2023-01-31T02:12:12;100421.28;;;3.01;60.10
68654;BME280;55636;51.108;13.622;2023-01-31T02:13:14;100422.09;;;3.01;60.24
68654;BME280;55636;51.108;13.622;2023-01-31T02:14:18;100423.13;;;3.00;60.16
68654;BME280;55636;51.108;13.622;2023-01-31T02:15:21;100422.09;;;3.01;60.18
68654;BME280;55636;51.108;13.622;2023-01-31T02:16:24;100413.91;;;3.01;60.33
68654;BME280;55636;51.108;13.622;2023-01-31T02:17:28;100410.34;;;3.01;60.32
68654;BME280;55636;51.108;13.622;2023-01-31T02:18:31;100407.63;;;3.01;60.33
68654;BME280;55636;51.108;13.622;2023-01-31T02:29:09;100429.47;;;3.01;60.09
68654;BME280;55636;51.108;13.622;2023-01-31T02:32:34;100429.47;;;3.01;59.97
68654;BME280;55636;51.108;13.622;2023-01-31T02:33:54;100440.16;;;3.02;59.93
68654;BME280;55636;51.108;13.622;2023-01-31T02:35:08;100430.28;;;3.01;59.98
68654;BME280;55636;51.108;13.622;2023-01-31T02:36:32;100434.69;;;3.02;59.84
68654;BME280;55636;51.108;13.622;2023-01-31T02:39:27;100442.88;;;3.02;59.73
68654;BME280;55636;51.108;13.622;2023-01-31T02:45:37;100443.72;;;3.03;59.45
68654;BME280;55636;51.108;13.622;2023-01-31T02:46:57;100450.88;;;3.04;59.29
68654;BME280;55636;51.108;13.622;2023-01-31T02:49:37;100470.19;;;3.02;59.13
68654;BME280;55636;51.108;13.622;2023-01-31T02:52:30;100462.63;;;3.04;59.17
68654;BME280;55636;51.108;13.622;2023-01-31T02:54:17;100460.09;;;3.03;59.09
68654;BME280;55636;51.108;13.622;2023-01-31T02:55:27;100455.28;;;3.05;58.99
68654;BME280;55636;51.108;13.622;2023-01-31T02:56:50;100468.28;;;3.03;58.95
68654;BME280;55636;51.108;13.622;2023-01-31T02:57:55;100468.94;;;3.05;58.90
68654;BME280;55636;51.108;13.622;2023-01-31T02:59:06;100471.66;;;3.05;59.02
68654;BME280;55636;51.108;13.622;2023-01-31T03:00:11;100472.50;;;3.05;59.06
68654;BME280;55636;51.108;13.622;2023-01-31T03:01:19;100488.03;;;3.05;58.98
68654;BME280;55636;51.108;13.622;2023-01-31T03:02:24;100480.88;;;3.04;59.00
68654;BME280;55636;51.108;13.622;2023-01-31T03:03:29;100480.69;;;3.05;58.93
68654;BME280;55636;51.108;13.622;2023-01-31T03:04:33;100476.25;;;3.04;58.88
68654;BME280;55636;51.108;13.622;2023-01-31T03:05:37;100482.59;;;3.05;58.99
68654;BME280;55636;51.108;13.622;2023-01-31T03:06:51;100488.03;;;3.05;58.89
68654;BME280;55636;51.108;13.622;2023-01-31T03:08:03;100491.59;;;3.05;58.88
68654;BME280;55636;51.108;13.622;2023-01-31T03:09:16;100482.59;;;3.05;58.88
68654;BME280;55636;51.108;13.622;2023-01-31T03:10:26;100497.91;;;3.06;59.03
68654;BME280;55636;51.108;13.622;2023-01-31T03:17:50;100520.38;;;3.08;59.06
68654;BME280;55636;51.108;13.622;2023-01-31T03:19:20;100514.91;;;3.08;59.25
68654;BME280;55636;51.108;13.622;2023-01-31T03:20:41;100524.13;;;3.07;59.29
68654;BME280;55636;51.108;13.622;2023-01-31T03:22:05;100526.03;;;3.06;59.46
68654;BME280;55636;51.108;13.622;2023-01-31T03:23:13;100537.78;;;3.07;59.43
68654;BME280;55636;51.108;13.622;2023-01-31T03:24:18;100529.22;;;3.10;59.60
68654;BME280;55636;51.108;13.622;2023-01-31T03:25:24;100530.25;;;3.09;59.85
68654;BME280;55636;51.108;13.622;2023-01-31T03:26:31;100543.06;;;3.08;59.88
68654;BME280;55636;51.108;13.622;2023-01-31T03:27:35;100534.44;;;3.05;60.00
68654;BME280;55636;51.108;13.622;2023-01-31T03:28:41;100539.69;;;3.06;59.90
68654;BME280;55636;51.108;13.622;2023-01-31T03:29:44;100545.97;;;3.07;60.13
68654;BME280;55636;51.108;13.622;2023-01-31T03:30:50;100542.63;;;3.05;60.07
68654;BME280;55636;51.108;13.622;2023-01-31T03:32:03;100545.16;;;3.06;60.13
68654;BME280;55636;51.108;13.622;2023-01-31T03:33:20;100560.69;;;3.06;60.13
68654;BME280;55636;51.108;13.622;2023-01-31T03:34:25;100565.09;;;3.07;60.06
68654;BME280;55636;51.108;13.622;2023-01-31T03:35:30;100562.34;;;3.07;60.24
68654;BME280;55636;51.108;13.622;2023-01-31T03:36:42;100559.63;;;3.07;60.12
68654;BME280;55636;51.108;13.622;2023-01-31T03:38:16;100569.50;;;3.08;60.17
68654;BME280;55636;51.108;13.622;2023-01-31T03:39:36;100574.13;;;3.07;60.19
68654;BME280;55636;51.108;13.622;2023-01-31T03:40:55;100578.72;;;3.07;60.43
68654;BME280;55636;51.108;13.622;2023-01-31T03:42:02;100576.00;;;3.07;60.40
68654;BME280;55636;51.108;13.622;2023-01-31T03:43:25;100573.09;;;3.08;60.46
68654;BME280;55636;51.108;13.622;2023-01-31T03:46:07;100577.91;;;3.06;60.53
68654;BME280;55636;51.108;13.622;2023-01-31T03:47:16;100568.03;;;3.05;60.63
68654;BME280;55636;51.108;13.622;2023-01-31T03:48:21;100577.06;;;3.06;60.60
68654;BME280;55636;51.108;13.622;2023-01-31T03:49:26;100570.75;;;3.05;60.59
68654;BME280;55636;51.108;13.622;2023-01-31T03:50:35;100573.50;;;3.05;60.72
68654;BME280;55636;51.108;13.622;2023-01-31T03:51:46;100572.88;;;3.03;60.77
68654;BME280;55636;51.108;13.622;2023-01-31T03:53:10;100577.69;;;3.01;60.82
68654;BME280;55636;51.108;13.622;2023-01-31T03:54:19;100574.13;;;3.01;60.68
68654;BME280;55636;51.108;13.622;2023-01-31T03:55:30;100570.75;;;2.99;60.86
68654;BME280;55636;51.108;13.622;2023-01-31T03:57:04;100583.34;;;3.00;60.76
68654;BME280;55636;51.108;13.622;2023-01-31T03:58:10;100578.31;;;2.97;60.71
68654;BME280;55636;51.108;13.622;2023-01-31T03:59:19;100581.22;;;2.95;60.91
68654;BME280;55636;51.108;13.622;2023-01-31T04:00:24;100575.97;;;2.93;60.87
68654;BME280;55636;51.108;13.622;2023-01-31T04:01:32;100575.16;;;2.93;61.04
68654;BME280;55636;51.108;13.622;2023-01-31T04:02:38;100578.09;;;2.91;61.14
68654;BME280;55636;51.108;13.622;2023-01-31T04:03:49;100570.06;;;2.90;61.20
68654;BME280;55636;51.108;13.622;2023-01-31T04:04:58;100571.97;;;2.89;61.11
68654;BME280;55636;51.108;13.622;2023-01-31T04:06:01;100582.88;;;2.89;60.99
68654;BME280;55636;51.108;13.622;2023-01-31T04:07:05;100579.50;;;2.87;61.19
68654;BME280;55636;51.108;13.622;2023-01-31T04:08:10;100590.41;;;2.87;61.14
68654;BME280;55636;51.108;13.622;2023-01-31T04:09:16;100586.88;;;2.87;61.13
68654;BME280;55636;51.108;13.622;2023-01-31T04:10:18;100596.94;;;2.86;61.21
68654;BME280;55636;51.108;13.622;2023-01-31T04:11:24;100587.06;;;2.85;61.27
68654;BME280;55636;51.108;13.622;2023-01-31T04:12:26;100588.94;;;2.85;61.28
68654;BME280;55636;51.108;13.622;2023-01-31T04:13:29;100585.38;;;2.84;61.43
68654;BME280;55636;51.108;13.622;2023-01-31T04:14:31;100581.19;;;2.82;61.35
68654;BME280;55636;51.108;13.622;2023-01-31T04:15:33;100586.63;;;2.82;61.31
68654;BME280;55636;51.108;13.622;2023-01-31T04:16:35;100581.38;;;2.80;61.41
68654;BME280;55636;51.108;13.622;2023-01-31T04:17:38;100581.38;;;2.80;61.43
68654;BME280;55636;51.108;13.622;2023-01-31T04:18:40;100578.00;;;2.78;61.56
68654;BME280;55636;51.108;13.622;2023-01-31T04:19:43;100574.03;;;2.81;61.53
68654;BME280;55636;51.108;13.622;2023-01-31T04:20:45;100585.16;;;2.79;61.54
68654;BME280;55636;51.108;13.622;2023-01-31T04:21:47;100579.88;;;2.77;61.50
68654;BME280;55636;51.108;13.622;2023-01-31T04:22:49;100579.88;;;2.77;61.58
68654;BME280;55636;51.108;13.622;2023-01-31T04:23:52;100576.28;;;2.77;61.46
68654;BME280;55636;51.108;13.622;2023-01-31T04:24:54;100574.63;;;2.76;61.51
68654;BME280;55636;51.108;13.622;2023-01-31T04:25:56;100574.41;;;2.77;61.49
68654;BME280;55636;51.108;13.622;2023-01-31T04:26:58;100575.44;;;2.76;61.63
68654;BME280;55636;51.108;13.622;2023-01-31T04:28:00;100571.91;;;2.76;61.55
68654;BME280;55636;51.108;13.622;2023-01-31T04:29:03;100581.94;;;2.75;61.58
68654;BME280;55636;51.108;13.622;2023-01-31T04:30:06;100577.56;;;2.74;61.66
68654;BME280;55636;51.108;13.622;2023-01-31T04:31:08;100579.22;;;2.75;61.52
68654;BME280;55636;51.108;13.622;2023-01-31T04:32:13;100577.16;;;2.77;61.60
68654;BME280;55636;51.108;13.622;2023-01-31T04:33:15;100580.91;;;2.76;61.54
68654;BME280;55636;51.108;13.622;2023-01-31T04:34:17;100581.94;;;2.75;61.61
68654;BME280;55636;51.108;13.622;2023-01-31T04:35:19;100582.16;;;2.74;61.54
68654;BME280;55636;51.108;13.622;2023-01-31T04:36:26;100585.53;;;2.76;61.49
68654;BME280;55636;51.108;13.622;2023-01-31T04:37:28;100585.94;;;2.73;61.65
68654;BME280;55636;51.108;13.622;2023-01-31T04:38:30;100590.78;;;2.77;61.47
68654;BME280;55636;51.108;13.622;2023-01-31T04:39:32;100587.19;;;2.77;61.53
68654;BME280;55636;51.108;13.622;2023-01-31T04:40:35;100589.09;;;2.76;61.56
68654;BME280;55636;51.108;13.622;2023-01-31T04:41:37;100593.50;;;2.77;61.44
68654;BME280;55636;51.108;13.622;2023-01-31T04:42:40;100595.38;;;2.77;61.53
68654;BME280;55636;51.108;13.622;2023-01-31T04:43:42;100596.25;;;2.77;61.38
68654;BME280;55636;51.108;13.622;2023-01-31T04:44:44;100594.38;;;2.78;61.40
68654;BME280;55636;51.108;13.622;2023-01-31T04:45:48;100590.63;;;2.79;61.43
68654;BME280;55636;51.108;13.622;2023-01-31T04:46:50;100587.88;;;2.79;61.43
68654;BME280;55636;51.108;13.622;2023-01-31T04:47:52;100596.06;;;2.79;61.40
68654;BME280;55636;51.108;13.622;2023-01-31T04:48:55;100604.91;;;2.81;61.14
68654;BME280;55636;51.108;13.622;2023-01-31T04:49:57;100600.47;;;2.80;61.21
68654;BME280;55636;51.108;13.622;2023-01-31T04:50:59;100604.03;;;2.81;61.18
68654;BME280;55636;51.108;13.622;2023-01-31T04:52:02;100598.59;;;2.81;61.19
68654;BME280;55636;51.108;13.622;2023-01-31T04:53:04;100595.84;;;2.81;61.12
68654;BME280;55636;51.108;13.622;2023-01-31T04:54:09;100598.59;;;2.81;61.11
68654;BME280;55636;51.108;13.622;2023-01-31T04:55:11;100598.59;;;2.81;61.16
68654;BME280;55636;51.108;13.622;2023-01-31T04:56:13;100592.31;;;2.80;61.20
68654;BME280;55636;51.108;13.622;2023-01-31T04:57:16;100596.91;;;2.80;61.17
68654;BME280;55636;51.108;13.622;2023-01-31T04:58:19;100594.81;;;2.82;60.95
68654;BME280;55636;51.108;13.622;2023-01-31T04:59:22;100601.09;;;2.82;60.94
68654;BME280;55636;51.108;13.622;2023-01-31T05:00:24;100592.09;;;2.82;61.18
68654;BME280;55636;51.108;13.622;2023-01-31T05:01:27;100602.19;;;2.81;60.99
68654;BME280;55636;51.108;13.622;2023-01-31T05:02:30;100602.19;;;2.81;60.85
68654;BME280;55636;51.108;13.622;2023-01-31T05:03:33;100597.75;;;2.80;60.99
68654;BME280;55636;51.108;13.622;2023-01-31T05:04:35;100605.72;;;2.82;61.03
68654;BME280;55636;51.108;13.622;2023-01-31T05:05:37;100610.97;;;2.83;60.86
68654;BME280;55636;51.108;13.622;2023-01-31T05:06:39;100598.19;;;2.84;60.94
68654;BME280;55636;51.108;13.622;2023-01-31T05:07:43;100601.97;;;2.83;60.93
68654;BME280;55636;51.108;13.622;2023-01-31T05:08:46;100621.69;;;2.85;60.86
68654;BME280;55636;51.108;13.622;2023-01-31T05:09:49;100609.94;;;2.84;60.88
68654;BME280;55636;51.108;13.622;2023-01-31T05:10:59;100611.63;;;2.85;60.69
68654;BME280;55636;51.108;13.622;2023-01-31T05:12:05;100620.66;;;2.86;60.65
68654;BME280;55636;51.108;13.622;2023-01-31T05:13:09;100618.56;;;2.88;60.71
68654;BME280;55636;51.108;13.622;2023-01-31T05:14:13;100614.16;;;2.87;60.75
68654;BME280;55636;51.108;13.622;2023-01-31T05:15:15;100608.69;;;2.87;60.70
68654;BME280;55636;51.108;13.622;2023-01-31T05:16:18;100622.13;;;2.88;60.88
68654;BME280;55636;51.108;13.622;2023-01-31T05:17:21;100614.97;;;2.87;60.68
68654;BME280;55636;51.108;13.622;2023-01-31T05:18:30;100611.00;;;2.90;60.66
68654;BME280;55636;51.108;13.622;2023-01-31T05:19:33;100611.88;;;2.90;60.63
68654;BME280;55636;51.108;13.622;2023-01-31T05:20:36;100606.19;;;2.92;60.63
68654;BME280;55636;51.108;13.622;2023-01-31T05:21:45;100612.50;;;2.92;60.66
68654;BME280;55636;51.108;13.622;2023-01-31T05:22:57;100619.63;;;2.93;60.62
68654;BME280;55636;51.108;13.622;2023-01-31T05:23:59;100610.63;;;2.93;60.57
68654;BME280;55636;51.108;13.622;2023-01-31T05:25:01;100615.88;;;2.95;60.57
68654;BME280;55636;51.108;13.622;2023-01-31T05:26:04;100616.06;;;2.93;60.52
68654;BME280;55636;51.108;13.622;2023-01-31T05:27:08;100612.09;;;2.96;60.60
68654;BME280;55636;51.108;13.622;2023-01-31T05:28:11;100607.69;;;2.95;60.50
68654;BME280;55636;51.108;13.622;2023-01-31T05:29:14;100615.88;;;2.95;60.45
68654;BME280;55636;51.108;13.622;2023-01-31T05:30:16;100613.97;;;2.95;60.58
68654;BME280;55636;51.108;13.622;2023-01-31T05:31:20;100618.38;;;2.96;60.50
68654;BME280;55636;51.108;13.622;2023-01-31T05:32:23;100615.66;;;2.96;60.60
68654;BME280;55636;51.108;13.622;2023-01-31T05:33:26;100613.97;;;2.95;60.57
68654;BME280;55636;51.108;13.622;2023-01-31T05:34:31;100626.56;;;2.96;60.54
68654;BME280;55636;51.108;13.622;2023-01-31T05:35:34;100620.91;;;2.98;60.71
68654;BME280;55636;51.108;13.622;2023-01-31T05:36:36;100620.06;;;2.97;60.60
68654;BME280;55636;51.108;13.622;2023-01-31T05:37:39;100606.63;;;2.96;60.55
68654;BME280;55636;51.108;13.622;2023-01-31T05:38:44;100623.84;;;2.96;60.54
68654;BME280;55636;51.108;13.622;2023-01-31T05:39:46;100617.56;;;2.96;60.46
68654;BME280;55636;51.108;13.622;2023-01-31T05:40:49;100618.38;;;2.96;60.59
68654;BME280;55636;51.108;13.622;2023-01-31T05:41:52;100632.03;;;2.96;60.43
68654;BME280;55636;51.108;13.622;2023-01-31T05:42:56;100615.66;;;2.96;60.50
68654;BME280;55636;51.108;13.622;2023-01-31T05:44:00;100618.00;;;2.99;60.39
68654;BME280;55636;51.108;13.622;2023-01-31T05:45:04;100618.19;;;2.98;60.56
68654;BME280;55636;51.108;13.622;2023-01-31T05:46:07;100605.59;;;2.97;60.43
68654;BME280;55636;51.108;13.622;2023-01-31T05:47:10;100617.34;;;2.97;60.47
68654;BME280;55636;51.108;13.622;2023-01-31T05:48:12;100604.75;;;2.96;60.55
68654;BME280;55636;51.108;13.622;2023-01-31T05:49:15;100611.88;;;2.97;60.50
68654;BME280;55636;51.108;13.622;2023-01-31T05:50:17;100614.63;;;2.97;60.71
68654;BME280;55636;51.108;13.622;2023-01-31T05:51:22;100619.03;;;2.98;60.67
68654;BME280;55636;51.108;13.622;2023-01-31T05:52:24;100626.38;;;2.98;60.71
68654;BME280;55636;51.108;13.622;2023-01-31T05:53:27;100624.72;;;2.97;60.69
68654;BME280;55636;51.108;13.622;2023-01-31T05:54:29;100606.63;;;2.96;60.60
68654;BME280;55636;51.108;13.622;2023-01-31T05:55:32;100630.16;;;2.97;60.78
68654;BME280;55636;51.108;13.622;2023-01-31T05:56:34;100620.91;;;2.98;60.62
68654;BME280;55636;51.108;13.622;2023-01-31T05:57:36;100624.28;;;3.00;60.72
68654;BME280;55636;51.108;13.622;2023-01-31T05:58:39;100619.66;;;3.00;60.91
68654;BME280;55636;51.108;13.622;2023-01-31T05:59:41;100625.31;;;2.99;60.88
68654;BME280;55636;51.108;13.622;2023-01-31T06:00:43;100620.72;;;2.99;60.92
68654;BME280;55636;51.108;13.622;2023-01-31T06:01:46;100628.72;;;3.01;60.85
68654;BME280;55636;51.108;13.622;2023-01-31T06:02:49;100622.38;;;3.00;60.89
68654;BME280;55636;51.108;13.622;2023-01-31T06:03:53;100625.13;;;3.00;61.00
68654;BME280;55636;51.108;13.622;2023-01-31T06:04:55;100628.50;;;3.02;60.79
68654;BME280;55636;51.108;13.622;2023-01-31T06:05:57;100629.31;;;3.03;60.72
68654;BME280;55636;51.108;13.622;2023-01-31T06:07:00;100625.78;;;3.02;60.73
68654;BME280;55636;51.108;13.622;2023-01-31T06:08:02;100632.28;;;3.01;60.89
68654;BME280;55636;51.108;13.622;2023-01-31T06:09:04;100633.97;;;3.02;60.97
68654;BME280;55636;51.108;13.622;2023-01-31T06:10:08;100624.91;;;3.02;60.97
68654;BME280;55636;51.108;13.622;2023-01-31T06:11:11;100629.53;;;3.01;60.97
68654;BME280;55636;51.108;13.622;2023-01-31T06:12:15;100619.44;;;3.02;60.95